createdAt,value
2018-04-28T00:01:26.343Z,7.33
2018-04-28T00:03:53.800Z,10.37
2018-04-28T00:06:22.035Z,6.57
2018-04-28T00:08:49.514Z,6.63
2018-04-28T00:11:16.980Z,6.07
2018-04-28T00:13:44.414Z,6.17
2018-04-28T00:16:12.668Z,11.70
2018-04-28T00:18:41.065Z,8.07
2018-04-28T00:21:11.197Z,7.30
2018-04-28T00:23:43.154Z,8.50
2018-04-28T00:26:10.609Z,6.90
2018-04-28T00:28:38.916Z,9.73
2018-04-28T00:31:09.947Z,6.90
2018-04-28T00:33:39.518Z,6.17
2018-04-28T00:36:08.755Z,10.57
2018-04-28T00:38:38.471Z,11.10
2018-04-28T00:41:07.476Z,5.67
2018-04-28T00:43:34.943Z,8.57
2018-04-28T00:46:03.254Z,8.50
2018-04-28T00:51:28.891Z,8.73
2018-04-28T00:54:05.170Z,11.47
2018-04-28T00:56:32.658Z,5.90
2018-04-28T00:59:00.121Z,9.00
2018-04-28T01:01:46.342Z,6.03
2018-04-28T01:04:21.308Z,6.77
2018-04-28T01:06:49.478Z,4.47
2018-04-28T01:09:17.696Z,10.00
2018-04-28T01:11:45.168Z,7.20
2018-04-28T01:14:12.642Z,9.70
2018-04-28T01:16:44.842Z,7.33
2018-04-28T01:22:11.563Z,5.63
2018-04-28T01:24:47.898Z,10.50
2018-04-28T01:27:27.187Z,11.13
2018-04-28T01:29:56.157Z,10.30
2018-04-28T01:32:25.322Z,9.13
2018-04-28T01:35:07.672Z,6.60
2018-04-28T01:37:38.745Z,5.60
2018-04-28T01:40:12.213Z,7.10
2018-04-28T01:42:44.966Z,10.70
2018-04-28T01:48:35.091Z,7.00
2018-04-28T01:51:06.193Z,8.17
2018-04-28T01:53:36.922Z,6.07
2018-04-28T01:56:20.850Z,11.50
2018-04-28T01:58:51.597Z,6.23
2018-04-28T02:01:24.246Z,9.00
2018-04-28T02:03:54.064Z,7.97
2018-04-28T02:06:43.674Z,8.20
2018-04-28T02:09:11.743Z,7.07
2018-04-28T02:11:43.765Z,10.77
2018-04-28T02:14:21.050Z,12.10
2018-04-28T02:16:50.987Z,11.80
2018-04-28T02:19:27.036Z,7.27
2018-04-28T02:22:06.319Z,8.73
2018-04-28T02:27:49.924Z,12.53
2018-04-28T02:30:19.196Z,8.30
2018-04-28T02:32:50.388Z,9.40
2018-04-28T02:35:25.021Z,10.80
2018-04-28T02:41:01.757Z,9.90
2018-04-28T02:43:31.943Z,8.10
2018-04-28T02:46:08.742Z,13.40
2018-04-28T02:51:42.893Z,8.50
2018-04-28T02:54:16.294Z,9.47
2018-04-28T02:56:46.605Z,8.57
2018-04-28T02:59:14.789Z,9.57
2018-04-28T03:01:50.128Z,11.80
2018-04-28T03:04:35.065Z,11.47
2018-04-28T03:07:26.047Z,6.60
2018-04-28T03:09:55.067Z,6.70
2018-04-28T03:12:22.534Z,9.57
2018-04-28T03:14:49.968Z,6.43
2018-04-28T03:17:20.828Z,7.67
2018-04-28T03:19:50.660Z,6.37
2018-04-28T03:22:19.036Z,8.53
2018-04-28T03:24:49.841Z,7.73
2018-04-28T03:27:29.175Z,7.53
2018-04-28T03:30:04.182Z,8.63
2018-04-28T03:32:44.146Z,8.77
2018-04-28T03:35:16.650Z,14.97
2018-04-28T03:40:47.286Z,8.37
2018-04-28T03:43:18.139Z,12.03
2018-04-28T03:45:45.615Z,15.60
2018-04-28T03:48:16.575Z,10.07
2018-04-28T03:51:05.533Z,10.57
2018-04-28T03:53:33.944Z,12.73
2018-04-28T03:56:04.547Z,7.17
2018-04-28T03:58:43.821Z,9.47
2018-04-28T04:01:23.195Z,9.10
2018-04-28T04:07:00.824Z,12.07
2018-04-28T04:09:29.943Z,9.83
2018-04-28T04:15:04.471Z,10.47
2018-04-28T04:17:44.607Z,10.97
2018-04-28T04:23:37.160Z,12.50
2018-04-28T04:26:09.048Z,6.33
2018-04-28T04:32:06.751Z,8.33
2018-04-28T04:37:43.036Z,13.63
2018-04-28T04:40:16.134Z,13.37
2018-04-28T04:43:04.605Z,6.43
2018-04-28T04:45:52.618Z,11.17
2018-04-28T04:48:26.775Z,6.33
2018-04-28T04:50:57.942Z,9.27
2018-04-28T04:56:47.523Z,8.30
2018-04-28T04:59:33.294Z,13.17
2018-04-28T05:05:03.891Z,9.33
2018-04-28T05:07:37.980Z,8.63
2018-04-28T05:10:17.193Z,8.10
2018-04-28T05:19:04.364Z,12.77
2018-04-28T05:21:36.684Z,9.17
2018-04-28T05:24:16.028Z,9.37
2018-04-28T05:29:59.490Z,9.47
2018-04-28T05:36:01.890Z,6.70
2018-04-28T05:38:48.771Z,10.63
2018-04-28T05:41:18.832Z,11.77
2018-04-28T05:43:57.199Z,14.23
2018-04-28T05:46:37.479Z,9.13
2018-04-28T05:49:10.708Z,9.97
2018-04-28T05:51:46.761Z,9.93
2018-04-28T05:54:26.127Z,8.57
2018-04-28T05:57:00.322Z,9.40
2018-04-28T05:59:44.322Z,12.23
2018-04-28T06:02:24.601Z,11.50
2018-04-28T06:05:03.818Z,17.07
2018-04-28T06:07:37.268Z,20.43
2018-04-28T06:10:10.571Z,11.03
2018-04-28T06:12:44.803Z,8.83
2018-04-28T06:18:30.274Z,8.63
2018-04-28T06:20:58.531Z,12.73
2018-04-28T06:23:26.031Z,12.43
2018-04-28T06:25:53.571Z,9.97
2018-04-28T06:28:21.756Z,9.37
2018-04-28T06:30:49.274Z,13.03
2018-04-28T06:33:16.736Z,8.70
2018-04-28T06:35:44.267Z,12.07
2018-04-28T06:38:11.659Z,7.83
2018-04-28T06:40:39.214Z,8.27
2018-04-28T06:43:06.655Z,7.27
2018-04-28T06:45:34.110Z,14.73
2018-04-28T06:48:01.579Z,9.17
2018-04-28T06:50:29.200Z,9.20
2018-04-28T06:52:56.655Z,6.83
2018-04-28T06:55:24.095Z,10.53
2018-04-28T06:57:51.535Z,16.33
2018-04-28T07:00:19.781Z,10.90
2018-04-28T07:02:47.261Z,13.03
2018-04-28T07:05:14.864Z,11.17
2018-04-28T07:07:42.380Z,8.87
2018-04-28T07:10:09.836Z,15.57
2018-04-28T07:12:37.280Z,16.20
2018-04-28T07:15:04.760Z,8.43
2018-04-28T07:17:32.963Z,11.67
2018-04-28T07:20:00.444Z,8.03
2018-04-28T07:22:27.920Z,10.50
2018-04-28T07:24:55.363Z,11.23
2018-04-28T07:27:22.815Z,11.33
2018-04-28T07:29:50.263Z,10.93
2018-04-28T07:32:17.764Z,10.33
2018-04-28T07:34:45.994Z,12.57
2018-04-28T07:37:13.498Z,14.63
2018-04-28T07:39:40.975Z,8.80
2018-04-28T07:42:09.220Z,10.60
2018-04-28T07:44:36.681Z,10.10
2018-04-28T07:47:04.152Z,9.77
2018-04-28T07:49:32.395Z,11.57
2018-04-28T07:51:59.862Z,12.07
2018-04-28T07:54:27.363Z,9.33
2018-04-28T07:56:54.936Z,9.93
2018-04-28T07:59:22.396Z,12.77
2018-04-28T08:01:49.844Z,13.73
2018-04-28T08:04:17.381Z,9.80
2018-04-28T08:06:45.639Z,10.80
2018-04-28T08:09:13.872Z,8.67
2018-04-28T08:11:41.343Z,9.87
2018-04-28T08:14:08.822Z,9.63
2018-04-28T08:16:36.268Z,8.07
2018-04-28T08:19:03.735Z,8.60
2018-04-28T08:21:31.222Z,9.77
2018-04-28T08:23:59.448Z,8.90
2018-04-28T08:26:26.931Z,6.47
2018-04-28T08:28:54.433Z,11.10
2018-04-28T08:31:21.976Z,7.80
2018-04-28T08:33:49.430Z,9.00
2018-04-28T08:36:16.881Z,8.13
2018-04-28T08:38:45.116Z,5.33
2018-04-28T08:41:12.725Z,8.53
2018-04-28T08:43:40.157Z,4.63
2018-04-28T08:46:08.420Z,6.23
2018-04-28T08:48:35.911Z,7.37
2018-04-28T08:51:04.388Z,6.33
2018-04-28T08:53:31.872Z,8.13
2018-04-28T08:55:59.323Z,11.23
2018-04-28T08:58:26.779Z,8.87
2018-04-28T09:00:59.951Z,8.93
2018-04-28T09:03:28.248Z,3.17
2018-04-28T09:05:55.691Z,4.10
2018-04-28T09:08:23.127Z,5.77
2018-04-28T09:10:51.377Z,4.37
2018-04-28T09:13:18.831Z,7.67
2018-04-28T09:15:46.282Z,3.47
2018-04-28T09:18:13.766Z,1.73
2018-04-28T09:20:42.090Z,6.63
2018-04-28T09:23:09.946Z,4.30
2018-04-28T09:25:37.389Z,4.07
2018-04-28T09:28:04.868Z,3.20
2018-04-28T09:30:32.320Z,2.97
2018-04-28T09:32:59.949Z,4.43
2018-04-28T09:35:27.353Z,3.17
2018-04-28T09:37:54.794Z,5.32
2018-04-28T09:40:22.284Z,3.00
2018-04-28T09:42:49.764Z,3.25
2018-04-28T09:45:17.222Z,3.33
2018-04-28T09:47:44.769Z,6.70
2018-04-28T09:50:12.228Z,4.03
2018-04-28T09:52:39.671Z,2.57
2018-04-28T09:55:07.152Z,3.20
2018-04-28T09:57:34.600Z,5.10
2018-04-28T10:00:13.992Z,7.03
2018-04-28T10:02:41.435Z,4.07
2018-04-28T10:05:08.895Z,3.50
2018-04-28T10:07:36.351Z,5.97
2018-04-28T10:10:03.915Z,2.27
2018-04-28T10:12:31.385Z,6.43
2018-04-28T10:14:58.850Z,5.77
2018-04-28T10:17:26.323Z,3.57
2018-04-28T10:19:53.782Z,5.28
2018-04-28T10:22:21.242Z,3.85
2018-04-28T10:24:48.699Z,4.07
2018-04-28T10:27:16.142Z,3.12
2018-04-28T10:29:43.615Z,4.15
2018-04-28T10:32:11.088Z,2.67
2018-04-28T10:34:39.318Z,4.85
2018-04-28T10:37:06.781Z,1.83
2018-04-28T10:39:34.996Z,2.95
2018-04-28T10:42:03.261Z,3.95
2018-04-28T10:44:30.760Z,2.90
2018-04-28T10:46:58.210Z,2.35
2018-04-28T10:49:25.677Z,4.43
2018-04-28T10:51:53.115Z,3.33
2018-04-28T10:54:20.608Z,6.32
2018-04-28T10:56:48.047Z,3.37
2018-04-28T10:59:15.514Z,2.25
2018-04-28T11:01:42.993Z,4.07
2018-04-28T11:04:10.442Z,3.60
2018-04-28T11:06:37.886Z,5.18
2018-04-28T11:09:05.364Z,3.60
2018-04-28T11:11:32.836Z,3.60
2018-04-28T11:14:00.332Z,2.37
2018-04-28T11:16:27.808Z,3.62
2018-04-28T11:18:55.278Z,2.40
2018-04-28T11:21:22.764Z,5.20
2018-04-28T11:23:50.209Z,3.05
2018-04-28T11:26:17.662Z,3.97
2018-04-28T11:28:45.908Z,2.12
2018-04-28T11:31:13.376Z,2.65
2018-04-28T11:33:40.824Z,4.50
2018-04-28T11:36:08.275Z,4.95
2018-04-28T11:38:35.727Z,1.95
2018-04-28T11:41:03.210Z,2.70
2018-04-28T11:43:30.646Z,5.45
2018-04-28T11:45:58.173Z,4.30
2018-04-28T11:48:26.350Z,2.92
2018-04-28T11:50:54.553Z,6.05
2018-04-28T11:53:22.163Z,4.30
2018-04-28T11:55:49.507Z,2.17
2018-04-28T11:58:17.025Z,2.60
2018-04-28T12:00:45.175Z,3.87
2018-04-28T12:03:12.657Z,2.60
2018-04-28T12:05:40.164Z,1.77
2018-04-28T12:08:07.598Z,2.95
2018-04-28T12:10:35.044Z,2.67
2018-04-28T12:13:02.488Z,3.05
2018-04-28T12:15:29.969Z,3.08
2018-04-28T12:17:57.440Z,3.17
2018-04-28T12:20:24.955Z,1.50
2018-04-28T12:22:52.427Z,2.92
2018-04-28T12:25:19.888Z,3.30
2018-04-28T12:27:47.332Z,3.20
2018-04-28T12:30:14.780Z,4.62
2018-04-28T12:32:42.289Z,4.18
2018-04-28T12:35:09.729Z,3.05
2018-04-28T12:37:37.276Z,4.22
2018-04-28T12:40:04.740Z,3.15
2018-04-28T12:42:32.252Z,4.62
2018-04-28T12:44:59.708Z,2.67
2018-04-28T12:47:27.216Z,4.05
2018-04-28T12:49:54.676Z,7.37
2018-04-28T12:52:22.150Z,4.20
2018-04-28T12:54:49.656Z,5.07
2018-04-28T12:57:17.139Z,4.82
2018-04-28T12:59:44.587Z,3.62
2018-04-28T13:02:12.071Z,2.80
2018-04-28T13:04:39.521Z,5.32
2018-04-28T13:07:06.990Z,3.87
2018-04-28T13:09:34.464Z,3.62
2018-04-28T13:12:02.684Z,4.43
2018-04-28T13:14:30.140Z,4.40
2018-04-28T13:16:57.595Z,4.35
2018-04-28T13:19:25.086Z,6.15
2018-04-28T13:21:52.547Z,3.53
2018-04-28T13:24:20.802Z,3.05
2018-04-28T13:26:48.255Z,5.32
2018-04-28T13:29:15.872Z,2.78
2018-04-28T13:31:43.260Z,3.33
2018-04-28T13:34:10.731Z,4.72
2018-04-28T13:36:38.208Z,3.05
2018-04-28T13:39:05.671Z,4.78
2018-04-28T13:41:33.125Z,2.75
2018-04-28T13:44:00.606Z,4.30
2018-04-28T13:46:28.845Z,3.58
2018-04-28T13:48:56.314Z,2.55
2018-04-28T13:51:23.876Z,6.82
2018-04-28T13:53:51.329Z,4.67
2018-04-28T13:56:18.787Z,2.80
2018-04-28T13:58:46.262Z,2.00
2018-04-28T14:01:14.478Z,3.00
2018-04-28T14:03:42.027Z,3.47
2018-04-28T14:06:09.503Z,3.35
2018-04-28T14:08:36.973Z,2.97
2018-04-28T14:11:04.462Z,5.03
2018-04-28T14:13:31.902Z,2.00
2018-04-28T14:15:59.374Z,4.37
2018-04-28T14:18:27.619Z,4.20
2018-04-28T14:20:55.145Z,3.67
2018-04-28T14:23:22.574Z,3.83
2018-04-28T14:25:50.828Z,2.37
2018-04-28T14:28:18.273Z,4.23
2018-04-28T14:30:45.744Z,4.43
2018-04-28T14:33:13.200Z,4.40
2018-04-28T14:35:40.647Z,3.30
2018-04-28T14:38:08.135Z,3.30
2018-04-28T14:40:36.439Z,4.95
2018-04-28T14:43:03.892Z,4.37
2018-04-28T14:45:31.360Z,2.92
2018-04-28T14:47:58.811Z,4.07
2018-04-28T14:50:26.298Z,4.83
2018-04-28T14:52:53.800Z,4.83
2018-04-28T14:55:21.212Z,4.67
2018-04-28T14:57:48.680Z,5.07
2018-04-28T15:00:16.130Z,4.40
2018-04-28T15:02:43.575Z,3.80
2018-04-28T15:05:11.043Z,5.80
2018-04-28T15:07:38.514Z,3.83
2018-04-28T15:10:05.970Z,2.50
2018-04-28T15:12:33.428Z,5.70
2018-04-28T15:15:00.909Z,4.97
2018-04-28T15:17:29.211Z,2.40
2018-04-28T15:19:56.644Z,4.33
2018-04-28T15:22:24.156Z,4.23
2018-04-28T15:24:51.783Z,2.33
2018-04-28T15:27:19.230Z,2.30
2018-04-28T15:29:46.859Z,3.77
2018-04-28T15:32:14.329Z,3.97
2018-04-28T15:34:42.555Z,4.63
2018-04-28T15:37:10.092Z,7.47
2018-04-28T15:39:37.594Z,2.50
2018-04-28T15:42:05.149Z,1.70
2018-04-28T15:44:32.702Z,5.00
2018-04-28T15:47:00.375Z,5.67
2018-04-28T15:49:27.984Z,4.13
2018-04-28T15:51:55.656Z,5.07
2018-04-28T15:54:23.133Z,4.23
2018-04-28T15:56:50.594Z,2.37
2018-04-28T15:59:18.043Z,2.90
2018-04-28T16:01:45.517Z,3.27
2018-04-28T16:04:12.992Z,3.70
2018-04-28T16:06:40.435Z,4.77
2018-04-28T16:09:07.949Z,3.53
2018-04-28T16:11:35.436Z,2.23
2018-04-28T16:14:02.905Z,2.53
2018-04-28T16:16:30.474Z,2.80
2018-04-28T16:18:58.032Z,5.60
2018-04-28T16:21:25.568Z,3.73
2018-04-28T16:23:53.128Z,5.17
2018-04-28T16:26:20.610Z,4.93
2018-04-28T16:28:48.109Z,2.37
2018-04-28T16:31:15.575Z,6.80
2018-04-28T16:33:43.067Z,2.93
2018-04-28T16:36:10.640Z,4.23
2018-04-28T16:38:38.087Z,4.03
2018-04-28T16:41:05.556Z,5.57
2018-04-28T16:43:33.112Z,3.90
2018-04-28T16:46:00.719Z,5.07
2018-04-28T16:48:28.153Z,6.10
2018-04-28T16:50:56.390Z,5.17
2018-04-28T16:53:23.865Z,4.00
2018-04-28T16:55:51.321Z,4.40
2018-04-28T16:58:18.772Z,5.33
2018-04-28T17:00:46.337Z,5.63
2018-04-28T17:03:13.821Z,35.50
2018-04-28T17:05:41.361Z,8.43
2018-04-28T17:08:08.809Z,3.83
2018-04-28T17:10:36.447Z,3.33
2018-04-28T17:13:03.907Z,6.07
2018-04-28T17:15:31.482Z,5.40
2018-04-28T17:17:59.023Z,2.70
2018-04-28T17:20:26.606Z,4.97
2018-04-28T17:22:54.053Z,4.53
2018-04-28T17:25:21.604Z,6.63
2018-04-28T17:27:49.044Z,4.67
2018-04-28T17:30:16.519Z,4.60
2018-04-28T17:32:43.978Z,4.33
2018-04-28T17:35:11.526Z,5.43
2018-04-28T17:37:39.362Z,3.20
2018-04-28T17:40:06.810Z,3.27
2018-04-28T17:42:34.376Z,6.27
2018-04-28T17:45:01.936Z,4.20
2018-04-28T17:47:29.444Z,4.33
2018-04-28T17:49:56.889Z,4.00
2018-04-28T17:52:24.438Z,7.07
2018-04-28T17:54:52.025Z,5.70
2018-04-28T17:57:19.489Z,5.30
2018-04-28T17:59:47.711Z,3.57
2018-04-28T18:02:15.172Z,2.90
2018-04-28T18:04:42.648Z,4.70
2018-04-28T18:07:10.092Z,4.67
2018-04-28T18:09:38.325Z,4.03
2018-04-28T18:12:06.648Z,2.40
2018-04-28T18:14:34.098Z,2.27
2018-04-28T18:17:01.546Z,2.30
2018-04-28T18:19:29.006Z,3.67
2018-04-28T18:21:56.454Z,3.60
2018-04-28T18:24:23.903Z,7.90
2018-04-28T18:26:51.511Z,3.73
2018-04-28T18:29:20.013Z,2.50
2018-04-28T18:31:47.579Z,4.27
2018-04-28T18:34:15.801Z,4.17
2018-04-28T18:36:43.515Z,2.33
2018-04-28T18:39:11.751Z,2.97
2018-04-28T18:41:39.237Z,4.37
2018-04-28T18:44:07.456Z,3.43
2018-04-28T18:46:34.923Z,5.37
2018-04-28T18:49:02.377Z,3.80
2018-04-28T18:51:29.847Z,3.47
2018-04-28T18:53:57.378Z,3.30
2018-04-28T18:56:24.862Z,2.47
2018-04-28T18:58:52.339Z,7.03
2018-04-28T19:01:19.826Z,6.47
2018-04-28T19:03:48.052Z,3.30
2018-04-28T19:06:15.599Z,3.23
2018-04-28T19:08:43.101Z,3.53
2018-04-28T19:11:11.332Z,4.10
2018-04-28T19:13:38.836Z,5.47
2018-04-28T19:16:06.264Z,3.00
2018-04-28T19:18:33.733Z,3.37
2018-04-28T19:21:01.252Z,2.93
2018-04-28T19:23:28.641Z,6.03
2018-04-28T19:25:56.109Z,3.43
2018-04-28T19:28:23.559Z,2.13
2018-04-28T19:30:51.007Z,3.30
2018-04-28T19:33:18.539Z,4.37
2018-04-28T19:35:45.991Z,2.97
2018-04-28T19:38:13.859Z,1.83
2018-04-28T19:40:41.324Z,2.70
2018-04-28T19:43:08.801Z,2.87
2018-04-28T19:45:36.324Z,3.13
2018-04-28T19:48:03.793Z,2.83
2018-04-28T19:50:31.269Z,4.37
2018-04-28T19:52:58.728Z,3.80
2018-04-28T19:55:26.212Z,3.67
2018-04-28T19:57:53.710Z,4.50
2018-04-28T20:00:21.178Z,2.97
2018-04-28T20:02:48.643Z,2.10
2018-04-28T20:05:16.084Z,2.53
2018-04-28T20:07:43.559Z,3.40
2018-04-28T20:10:11.003Z,6.47
2018-04-28T20:12:38.454Z,1.93
2018-04-28T20:15:06.531Z,4.10
2018-04-28T20:17:33.986Z,4.93
2018-04-28T20:20:01.462Z,2.50
2018-04-28T20:22:40.997Z,3.67
2018-04-28T20:25:29.354Z,7.17
2018-04-28T20:27:56.828Z,1.80
2018-04-28T20:30:24.284Z,3.17
2018-04-28T20:32:51.767Z,3.03
2018-04-28T20:35:20.002Z,2.13
2018-04-28T20:37:47.474Z,3.03
2018-04-28T20:40:14.971Z,2.87
2018-04-28T20:42:42.418Z,5.03
2018-04-28T20:45:10.645Z,3.87
2018-04-28T20:47:38.132Z,3.57
2018-04-28T20:50:05.601Z,3.50
2018-04-28T20:52:33.820Z,3.10
2018-04-28T20:55:01.296Z,6.03
2018-04-28T20:57:28.817Z,4.30
2018-04-28T20:59:56.301Z,3.77
2018-04-28T21:02:23.773Z,3.87
2018-04-28T21:04:51.215Z,3.40
2018-04-28T21:07:18.681Z,3.00
2018-04-28T21:09:46.183Z,3.57
2018-04-28T21:12:14.478Z,6.47
2018-04-28T21:14:41.946Z,6.50
2018-04-28T21:17:09.388Z,4.10
2018-04-28T21:19:36.846Z,4.47
2018-04-28T21:22:04.311Z,2.50
2018-04-28T21:24:31.844Z,3.83
2018-04-28T21:26:59.247Z,3.57
2018-04-28T21:29:26.710Z,3.40
2018-04-28T21:31:54.174Z,9.37
2018-04-28T21:34:21.675Z,5.57
2018-04-28T21:36:49.886Z,3.53
2018-04-28T21:39:17.324Z,2.60
2018-04-28T21:41:44.821Z,4.03
2018-04-28T21:44:12.257Z,4.60
2018-04-28T21:46:39.728Z,2.43
2018-04-28T21:49:07.172Z,4.53
2018-04-28T21:51:34.642Z,2.97
2018-04-28T21:54:02.116Z,2.17
2018-04-28T21:56:30.383Z,3.10
2018-04-28T21:58:57.833Z,4.27
2018-04-28T22:01:25.292Z,4.13
2018-04-28T22:03:52.757Z,4.30
2018-04-28T22:06:20.189Z,3.00
2018-04-28T22:08:47.639Z,3.87
2018-04-28T22:11:15.121Z,4.03
2018-04-28T22:13:42.563Z,6.50
2018-04-28T22:16:10.039Z,3.37
2018-04-28T22:18:37.551Z,3.57
2018-04-28T22:21:05.006Z,3.60
2018-04-28T22:23:32.514Z,5.00
2018-04-28T22:25:59.924Z,3.97
2018-04-28T22:28:27.395Z,3.13
2018-04-28T22:30:54.865Z,4.27
2018-04-28T22:33:22.334Z,4.30
2018-04-28T22:35:49.854Z,3.07
2018-04-28T22:38:17.314Z,3.13
2018-04-28T22:40:44.784Z,7.03
2018-04-28T22:43:12.254Z,4.20
2018-04-28T22:45:39.698Z,4.10
2018-04-28T22:48:07.184Z,3.23
2018-04-28T22:50:34.626Z,3.93
2018-04-28T22:53:02.122Z,4.10
2018-04-28T22:55:30.427Z,3.37
2018-04-28T22:57:57.894Z,2.47
2018-04-28T23:00:25.372Z,5.17
2018-04-28T23:02:52.924Z,1.97
2018-04-28T23:05:21.078Z,4.97
2018-04-28T23:07:48.620Z,3.50
2018-04-28T23:10:16.011Z,3.37
2018-04-28T23:12:43.447Z,3.53
2018-04-28T23:15:10.916Z,3.53
2018-04-28T23:17:38.367Z,3.37
2018-04-28T23:20:05.830Z,3.63
2018-04-28T23:22:33.307Z,5.43
2018-04-28T23:25:00.744Z,4.17
2018-04-28T23:27:28.196Z,3.37
2018-04-28T23:29:55.654Z,1.63
2018-04-28T23:32:23.199Z,4.40
2018-04-28T23:34:50.645Z,4.10
2018-04-28T23:37:18.098Z,3.90
2018-04-28T23:39:45.561Z,3.07
2018-04-28T23:42:13.026Z,2.57
2018-04-28T23:44:40.492Z,6.70
2018-04-28T23:47:08.042Z,4.73
2018-04-28T23:49:35.484Z,3.83
2018-04-28T23:52:02.952Z,4.63
2018-04-28T23:54:30.414Z,4.17
2018-04-28T23:56:57.969Z,3.03
2018-04-28T23:59:25.442Z,5.27
